createdAt,value
2022-12-11T00:00:26.781Z,21.13
2022-12-11T00:02:53.783Z,20.77
2022-12-11T00:05:20.587Z,22.43
2022-12-11T00:07:47.427Z,22.20
2022-12-11T00:10:14.236Z,17.90
2022-12-11T00:12:41.007Z,20.13
2022-12-11T00:15:08.845Z,20.03
2022-12-11T00:17:36.030Z,19.83
2022-12-11T00:20:02.870Z,18.30
2022-12-11T00:22:30.679Z,18.60
2022-12-11T00:24:57.699Z,16.17
2022-12-11T00:27:24.557Z,17.53
2022-12-11T00:29:51.362Z,18.50
2022-12-11T00:32:18.173Z,19.83
2022-12-11T00:34:44.966Z,17.67
2022-12-11T00:37:11.822Z,19.80
2022-12-11T00:39:39.932Z,19.90
2022-12-11T00:42:08.080Z,21.30
2022-12-11T00:44:35.252Z,25.10
2022-12-11T00:47:02.238Z,25.67
2022-12-11T00:49:29.149Z,27.43
2022-12-11T00:51:56.121Z,19.87
2022-12-11T00:54:22.921Z,22.67
2022-12-11T00:56:50.815Z,21.03
2022-12-11T00:59:17.619Z,21.67
2022-12-11T01:01:44.567Z,23.70
2022-12-11T01:04:11.386Z,22.93
2022-12-11T01:06:39.508Z,24.50
2022-12-11T01:09:25.064Z,24.10
2022-12-11T01:11:52.539Z,22.53
2022-12-11T01:14:19.740Z,19.67
2022-12-11T01:16:46.603Z,20.87
2022-12-11T01:19:13.516Z,22.73
2022-12-11T01:21:41.211Z,20.27
2022-12-11T01:24:08.023Z,28.77
2022-12-11T01:26:34.857Z,27.67
2022-12-11T01:29:01.774Z,31.00
2022-12-11T01:31:28.571Z,33.83
2022-12-11T01:33:56.011Z,31.50
2022-12-11T01:36:23.652Z,49.93
2022-12-11T01:38:50.778Z,55.00
2022-12-11T01:41:19.091Z,38.13
2022-12-11T01:44:04.691Z,37.03
2022-12-11T01:46:33.840Z,31.80
2022-12-11T01:49:03.078Z,31.03
2022-12-11T01:51:33.209Z,31.03
2022-12-11T01:54:06.180Z,39.17
2022-12-11T01:56:36.073Z,36.50
2022-12-11T01:59:08.264Z,34.73
2022-12-11T02:01:37.204Z,31.87
2022-12-11T02:04:04.758Z,34.23
2022-12-11T02:06:43.746Z,44.90
2022-12-11T02:09:17.247Z,38.37
2022-12-11T02:11:55.358Z,39.87
2022-12-11T02:14:52.398Z,72.43
2022-12-11T02:17:44.993Z,40.50
2022-12-11T02:20:22.943Z,62.07
2022-12-11T02:23:10.934Z,60.03
2022-12-11T02:25:59.557Z,40.17
2022-12-11T02:28:38.807Z,137.40
2022-12-11T02:31:27.551Z,83.80
2022-12-11T02:34:45.429Z,93.50
2022-12-11T02:37:19.388Z,106.73
2022-12-11T02:39:49.030Z,53.93
2022-12-11T02:42:18.869Z,98.30
2022-12-11T02:44:47.320Z,37.33
2022-12-11T02:47:16.699Z,56.57
2022-12-11T02:49:46.777Z,42.93
2022-12-11T02:52:16.802Z,90.03
2022-12-11T02:54:45.917Z,66.17
2022-12-11T02:57:24.191Z,51.87
2022-12-11T02:59:50.963Z,58.23
2022-12-11T03:02:18.889Z,51.70
2022-12-11T03:04:47.272Z,40.87
2022-12-11T03:07:17.811Z,50.17
2022-12-11T03:09:47.146Z,78.53
2022-12-11T03:12:20.697Z,37.07
2022-12-11T03:14:48.942Z,51.90
2022-12-11T03:17:19.647Z,54.77
2022-12-11T03:20:12.633Z,42.73
2022-12-11T03:22:54.571Z,40.30
2022-12-11T03:25:26.177Z,64.80
2022-12-11T03:28:06.200Z,45.30
2022-12-11T03:30:36.012Z,40.53
2022-12-11T03:33:14.530Z,35.67
2022-12-11T03:36:07.921Z,58.70
2022-12-11T03:38:41.689Z,83.33
2022-12-11T03:41:09.278Z,44.30
2022-12-11T03:43:37.475Z,44.67
2022-12-11T03:46:04.928Z,52.53
2022-12-11T03:48:35.469Z,51.43
2022-12-11T03:51:06.518Z,40.30
2022-12-11T03:53:38.667Z,48.10
2022-12-11T03:56:08.354Z,35.40
2022-12-11T03:58:35.378Z,40.63
2022-12-11T04:01:02.372Z,33.07
2022-12-11T04:03:29.265Z,61.73
2022-12-11T04:05:56.519Z,34.50
2022-12-11T04:08:24.114Z,91.43
2022-12-11T04:11:14.197Z,54.73
2022-12-11T04:13:41.878Z,56.67
2022-12-11T04:16:09.363Z,52.53
2022-12-11T04:18:54.929Z,44.53
2022-12-11T04:21:40.255Z,38.43
2022-12-11T04:24:16.757Z,37.93
2022-12-11T04:26:47.380Z,34.80
2022-12-11T04:29:15.578Z,36.63
2022-12-11T04:31:42.599Z,34.00
2022-12-11T04:34:09.923Z,63.67
2022-12-11T04:36:36.755Z,94.43
2022-12-11T04:39:05.092Z,26.70
2022-12-11T04:41:32.111Z,34.13
2022-12-11T04:43:58.990Z,95.13
2022-12-11T04:46:26.027Z,121.63
2022-12-11T04:48:57.387Z,34.70
2022-12-11T04:51:24.909Z,54.90
2022-12-11T04:53:51.873Z,56.30
2022-12-11T04:56:18.787Z,68.37
2022-12-11T04:58:46.159Z,52.77
2022-12-11T05:01:19.352Z,44.60
2022-12-11T05:03:46.963Z,63.70
2022-12-11T05:06:14.959Z,39.97
2022-12-11T05:08:42.986Z,36.30
2022-12-11T05:11:14.030Z,41.80
2022-12-11T05:13:42.079Z,64.13
2022-12-11T05:16:11.070Z,97.53
2022-12-11T05:18:38.199Z,107.50
2022-12-11T05:21:10.730Z,43.40
2022-12-11T05:23:38.235Z,50.77
2022-12-11T05:26:08.757Z,63.00
2022-12-11T05:28:38.218Z,45.17
2022-12-11T05:31:18.031Z,98.23
2022-12-11T05:33:45.940Z,82.10
2022-12-11T05:36:19.162Z,88.03
2022-12-11T05:38:46.103Z,59.53
2022-12-11T05:41:15.584Z,72.13
2022-12-11T05:43:42.582Z,35.03
2022-12-11T05:46:14.401Z,62.10
2022-12-11T05:48:41.827Z,48.57
2022-12-11T05:51:09.892Z,53.13
2022-12-11T05:53:38.569Z,58.97
2022-12-11T05:56:23.733Z,47.83
2022-12-11T05:58:51.159Z,45.87
2022-12-11T06:01:22.435Z,52.93
2022-12-11T06:03:49.267Z,56.23
2022-12-11T06:06:16.882Z,43.73
2022-12-11T06:08:43.679Z,36.07
2022-12-11T06:11:13.735Z,40.33
2022-12-11T06:13:40.820Z,61.00
2022-12-11T06:16:08.311Z,44.73
2022-12-11T06:18:40.946Z,60.67
2022-12-11T06:21:31.968Z,36.70
2022-12-11T06:24:02.393Z,39.03
2022-12-11T06:26:29.376Z,35.70
2022-12-11T06:28:56.147Z,37.97
2022-12-11T06:31:23.173Z,46.17
2022-12-11T06:33:50.054Z,56.53
2022-12-11T06:36:20.930Z,61.20
2022-12-11T06:38:48.041Z,34.10
2022-12-11T06:41:15.321Z,36.83
2022-12-11T06:43:43.033Z,49.30
2022-12-11T06:46:15.570Z,33.13
2022-12-11T06:48:43.343Z,36.87
2022-12-11T06:51:15.385Z,31.87
2022-12-11T06:53:42.747Z,35.60
2022-12-11T06:56:14.684Z,46.17
2022-12-11T06:58:42.591Z,41.70
2022-12-11T07:01:20.526Z,49.53
2022-12-11T07:03:47.511Z,46.20
2022-12-11T07:06:14.897Z,36.37
2022-12-11T07:08:42.309Z,40.70
2022-12-11T07:11:12.542Z,41.63
2022-12-11T07:13:39.629Z,43.07
2022-12-11T07:16:10.993Z,44.27
2022-12-11T07:18:43.062Z,32.27
2022-12-11T07:21:12.615Z,32.13
2022-12-11T07:23:40.541Z,37.00
2022-12-11T07:26:18.406Z,37.27
2022-12-11T07:28:45.293Z,41.40
2022-12-11T07:31:18.100Z,41.07
2022-12-11T07:33:45.448Z,33.30
2022-12-11T07:36:14.354Z,34.63
2022-12-11T07:38:41.655Z,29.97
2022-12-11T07:41:12.546Z,33.17
2022-12-11T07:43:39.749Z,32.83
2022-12-11T07:46:09.507Z,32.63
2022-12-11T07:48:37.545Z,29.67
2022-12-11T07:51:26.433Z,29.80
2022-12-11T07:53:55.159Z,29.70
2022-12-11T07:56:22.554Z,29.27
2022-12-11T07:58:49.729Z,31.53
2022-12-11T08:01:22.189Z,28.93
2022-12-11T08:03:50.708Z,30.93
2022-12-11T08:06:18.233Z,26.53
2022-12-11T08:08:45.340Z,28.80
2022-12-11T08:11:14.176Z,31.60
2022-12-11T08:13:41.783Z,28.80
2022-12-11T08:16:14.446Z,29.43
2022-12-11T08:18:42.623Z,31.17
2022-12-11T08:21:12.543Z,28.80
2022-12-11T08:23:39.749Z,26.67
2022-12-11T08:26:08.648Z,29.03
2022-12-11T08:28:35.703Z,29.47
2022-12-11T08:31:05.859Z,30.67
2022-12-11T08:33:32.953Z,33.70
2022-12-11T08:36:03.865Z,34.20
2022-12-11T08:38:31.837Z,33.37
2022-12-11T08:40:58.630Z,40.43
2022-12-11T08:43:25.680Z,40.13
2022-12-11T08:45:52.563Z,35.10
2022-12-11T08:48:19.389Z,32.43
2022-12-11T08:50:46.381Z,27.17
2022-12-11T08:53:13.132Z,50.83
2022-12-11T08:55:39.936Z,29.10
2022-12-11T08:58:06.684Z,26.10
2022-12-11T09:00:33.601Z,40.33
2022-12-11T09:03:01.035Z,36.67
2022-12-11T09:05:27.992Z,29.87
2022-12-11T09:07:54.798Z,38.50
2022-12-11T09:10:21.734Z,61.70
2022-12-11T09:12:48.616Z,54.00
2022-12-11T09:15:15.375Z,78.67
2022-12-11T09:17:42.410Z,86.37
2022-12-11T09:20:09.398Z,43.60
2022-12-11T09:22:36.254Z,46.17
2022-12-11T09:25:03.191Z,83.03
2022-12-11T09:27:29.960Z,32.53
2022-12-11T09:29:56.724Z,101.23
2022-12-11T09:32:23.479Z,26.93
2022-12-11T09:34:51.891Z,22.30
2022-12-11T09:37:18.754Z,21.97
2022-12-11T09:39:45.663Z,52.23
2022-12-11T09:42:24.821Z,31.97
2022-12-11T09:44:54.693Z,43.60
2022-12-11T09:47:34.250Z,39.10
2022-12-11T09:50:11.308Z,42.03
2022-12-11T09:52:47.890Z,23.63
2022-12-11T09:55:20.744Z,48.97
2022-12-11T09:58:05.397Z,66.07
2022-12-11T10:00:45.601Z,61.37
2022-12-11T10:03:43.003Z,28.40
2022-12-11T10:06:23.043Z,23.97
2022-12-11T10:08:55.519Z,26.13
2022-12-11T10:11:59.134Z,20.03
2022-12-11T10:14:43.987Z,27.87
2022-12-11T10:17:21.513Z,31.27
2022-12-11T10:19:49.398Z,23.10
2022-12-11T10:22:30.677Z,20.73
2022-12-11T10:25:11.656Z,55.50
2022-12-11T10:27:41.084Z,16.80
2022-12-11T10:30:21.330Z,20.80
2022-12-11T10:32:52.488Z,30.77
2022-12-11T10:35:29.917Z,21.73
2022-12-11T10:38:02.705Z,36.30
2022-12-11T10:40:31.127Z,25.43
2022-12-11T10:42:57.963Z,37.33
2022-12-11T10:45:25.036Z,43.37
2022-12-11T10:48:03.138Z,25.13
2022-12-11T10:50:29.988Z,22.23
2022-12-11T10:52:57.479Z,22.63
2022-12-11T10:55:47.967Z,23.43
2022-12-11T10:58:22.463Z,19.73
2022-12-11T11:01:05.149Z,31.23
2022-12-11T11:03:33.762Z,20.10
2022-12-11T11:06:07.580Z,21.10
2022-12-11T11:08:46.555Z,13.23
2022-12-11T11:11:28.527Z,18.60
2022-12-11T11:14:13.862Z,28.90
2022-12-11T11:16:43.195Z,27.97
2022-12-11T11:19:21.404Z,17.70
2022-12-11T11:21:55.077Z,21.80
2022-12-11T11:24:27.695Z,17.77
2022-12-11T11:27:23.757Z,15.87
2022-12-11T11:29:42.884Z,22.00
2022-12-11T11:32:32.259Z,31.63
2022-12-11T11:35:15.061Z,34.23
2022-12-11T11:37:47.431Z,19.13
2022-12-11T11:40:22.159Z,31.57
2022-12-11T11:43:00.826Z,28.80
2022-12-11T11:46:08.424Z,31.20
2022-12-11T11:48:41.219Z,23.43
2022-12-11T11:51:16.164Z,34.53
2022-12-11T11:53:51.356Z,32.30
2022-12-11T11:56:35.008Z,24.63
2022-12-11T11:59:14.172Z,29.53
2022-12-11T12:01:44.117Z,22.53
2022-12-11T12:04:11.535Z,46.63
2022-12-11T12:06:55.565Z,45.30
2022-12-11T12:09:34.653Z,47.00
2022-12-11T12:12:26.400Z,41.03
2022-12-11T12:14:54.454Z,24.60
2022-12-11T12:17:53.503Z,18.93
2022-12-11T12:20:54.578Z,17.37
2022-12-11T12:23:37.435Z,23.83
2022-12-11T12:26:04.428Z,25.50
2022-12-11T12:28:53.881Z,19.17
2022-12-11T12:31:42.338Z,24.83
2022-12-11T12:34:53.529Z,37.33
2022-12-11T12:37:57.728Z,16.37
2022-12-11T12:41:02.778Z,31.93
2022-12-11T12:43:44.109Z,20.33
2022-12-11T12:46:45.244Z,45.37
2022-12-11T12:49:17.537Z,18.60
2022-12-11T12:51:45.678Z,33.07
2022-12-11T12:54:16.653Z,32.47
2022-12-11T12:56:45.195Z,24.23
2022-12-11T12:59:24.205Z,37.13
2022-12-11T13:01:57.527Z,31.77
2022-12-11T13:04:56.535Z,31.77
2022-12-11T13:07:30.193Z,32.87
2022-12-11T13:10:24.016Z,30.43
2022-12-11T13:12:51.094Z,30.87
2022-12-11T13:15:26.755Z,25.03
2022-12-11T13:17:54.240Z,24.83
2022-12-11T13:20:23.768Z,26.57
2022-12-11T13:22:51.984Z,29.97
2022-12-11T13:25:25.181Z,41.40
2022-12-11T13:27:52.394Z,35.77
2022-12-11T13:30:19.134Z,22.73
2022-12-11T13:33:14.346Z,28.60
2022-12-11T13:35:41.331Z,21.57
2022-12-11T13:38:17.721Z,27.73
2022-12-11T13:40:46.725Z,18.77
2022-12-11T13:43:24.269Z,20.80
2022-12-11T13:45:57.407Z,20.13
2022-12-11T13:48:24.533Z,23.97
2022-12-11T13:50:53.452Z,22.17
2022-12-11T13:53:21.483Z,21.60
2022-12-11T13:55:57.919Z,19.23
2022-12-11T13:58:24.995Z,32.70
2022-12-11T14:01:04.701Z,29.87
2022-12-11T14:03:33.072Z,27.90
2022-12-11T14:06:01.874Z,37.57
2022-12-11T14:08:35.715Z,39.53
2022-12-11T14:11:03.074Z,29.57
2022-12-11T14:13:36.294Z,34.70
2022-12-11T14:16:03.881Z,26.23
2022-12-11T14:18:33.182Z,37.67
2022-12-11T14:21:04.144Z,33.43
2022-12-11T14:23:33.393Z,20.60
2022-12-11T14:26:15.306Z,22.27
2022-12-11T14:28:43.311Z,23.23
2022-12-11T14:31:17.061Z,25.93
2022-12-11T14:34:17.755Z,22.20
2022-12-11T14:36:46.647Z,32.73
2022-12-11T14:39:25.984Z,23.90
2022-12-11T14:42:10.818Z,24.47
2022-12-11T14:45:12.734Z,35.40
2022-12-11T14:47:43.248Z,32.93
2022-12-11T14:50:14.662Z,46.70
2022-12-11T14:52:48.315Z,24.60
2022-12-11T14:55:26.992Z,26.50
2022-12-11T14:57:59.149Z,26.17
2022-12-11T15:00:37.974Z,26.73
2022-12-11T15:03:07.850Z,46.80
2022-12-11T15:05:40.648Z,29.67
2022-12-11T15:08:10.882Z,30.93
2022-12-11T15:10:55.717Z,44.50
2022-12-11T15:13:25.986Z,40.40
2022-12-11T15:15:54.656Z,36.07
2022-12-11T15:18:26.001Z,33.67
2022-12-11T15:21:02.121Z,22.23
2022-12-11T15:23:29.886Z,25.73
2022-12-11T15:25:59.837Z,21.77
2022-12-11T15:28:38.113Z,21.80
2022-12-11T15:31:22.607Z,27.13
2022-12-11T15:33:49.380Z,25.80
2022-12-11T15:36:34.812Z,21.77
2022-12-11T15:39:03.132Z,43.37
2022-12-11T15:41:33.382Z,24.87
2022-12-11T15:44:03.096Z,30.63
2022-12-11T15:46:35.136Z,33.93
2022-12-11T15:49:02.096Z,35.50
2022-12-11T15:51:29.260Z,23.30
2022-12-11T15:53:56.066Z,33.17
2022-12-11T15:56:22.923Z,25.87
2022-12-11T15:58:50.004Z,24.03
2022-12-11T16:01:17.543Z,32.70
2022-12-11T16:03:45.887Z,23.33
2022-12-11T16:06:14.125Z,21.77
2022-12-11T16:08:40.907Z,28.10
2022-12-11T16:11:08.022Z,22.40
2022-12-11T16:13:35.005Z,26.87
2022-12-11T16:16:01.837Z,24.90
2022-12-11T16:18:28.667Z,27.97
2022-12-11T16:20:55.556Z,24.33
2022-12-11T16:23:22.476Z,28.83
2022-12-11T16:25:49.998Z,25.60
2022-12-11T16:28:20.831Z,39.97
2022-12-11T16:30:47.882Z,25.43
2022-12-11T16:33:15.315Z,30.70
2022-12-11T16:35:43.003Z,22.67
2022-12-11T16:38:11.114Z,23.30
2022-12-11T16:40:38.503Z,21.83
2022-12-11T16:43:05.827Z,28.23
2022-12-11T16:45:33.508Z,25.50
2022-12-11T16:48:04.199Z,26.37
2022-12-11T16:50:32.200Z,24.30
2022-12-11T16:52:59.159Z,28.10
2022-12-11T16:55:26.017Z,31.57
2022-12-11T16:57:52.929Z,26.57
2022-12-11T17:00:20.547Z,26.23
2022-12-11T17:02:48.217Z,28.33
2022-12-11T17:05:15.347Z,27.57
2022-12-11T17:07:42.341Z,26.77
2022-12-11T17:10:09.366Z,32.23
2022-12-11T17:12:36.418Z,25.50
2022-12-11T17:15:03.716Z,30.43
2022-12-11T17:17:30.591Z,34.50
2022-12-11T17:19:57.442Z,27.33
2022-12-11T17:22:24.275Z,31.73
2022-12-11T17:24:51.300Z,26.17
2022-12-11T17:27:18.278Z,26.63
2022-12-11T17:29:45.224Z,24.77
2022-12-11T17:32:12.557Z,30.60
2022-12-11T17:34:39.816Z,24.73
2022-12-11T17:37:06.840Z,24.57
2022-12-11T17:39:33.702Z,25.97
2022-12-11T17:42:00.879Z,30.17
2022-12-11T17:44:30.613Z,28.83
2022-12-11T17:47:04.687Z,32.93
2022-12-11T17:49:35.002Z,32.17
2022-12-11T17:52:01.922Z,30.20
2022-12-11T17:54:28.789Z,25.90
2022-12-11T17:56:55.959Z,25.67
2022-12-11T17:59:22.740Z,29.60
2022-12-11T18:01:50.090Z,28.57
2022-12-11T18:04:16.972Z,28.63
2022-12-11T18:06:43.930Z,33.10
2022-12-11T18:09:11.318Z,30.00
2022-12-11T18:11:38.112Z,38.00
2022-12-11T18:14:05.009Z,29.73
2022-12-11T18:16:34.520Z,30.30
2022-12-11T18:19:01.505Z,29.20
2022-12-11T18:21:31.978Z,27.90
2022-12-11T18:23:59.898Z,31.37
2022-12-11T18:26:27.378Z,30.37
2022-12-11T18:28:54.471Z,34.70
2022-12-11T18:31:22.458Z,30.93
2022-12-11T18:33:50.100Z,42.53
2022-12-11T18:36:19.336Z,32.23
2022-12-11T18:38:47.933Z,28.13
2022-12-11T18:41:16.195Z,27.67
2022-12-11T18:43:44.071Z,36.43
2022-12-11T18:46:14.437Z,28.67
2022-12-11T18:48:42.908Z,33.27
2022-12-11T18:51:14.058Z,28.67
2022-12-11T18:53:41.169Z,34.93
2022-12-11T18:56:12.631Z,31.10
2022-12-11T18:58:39.524Z,30.30
2022-12-11T19:01:18.538Z,31.03
2022-12-11T19:03:46.100Z,25.67
2022-12-11T19:06:17.731Z,26.73
2022-12-11T19:08:45.687Z,22.63
2022-12-11T19:11:20.782Z,24.20
2022-12-11T19:13:48.558Z,30.77
2022-12-11T19:16:23.592Z,22.93
2022-12-11T19:18:50.820Z,23.50
2022-12-11T19:21:19.209Z,24.77
2022-12-11T19:23:47.025Z,23.27
2022-12-11T19:26:19.297Z,21.07
2022-12-11T19:28:47.436Z,23.90
2022-12-11T19:31:20.885Z,25.37
2022-12-11T19:33:48.280Z,26.63
2022-12-11T19:36:17.912Z,27.17
2022-12-11T19:38:45.631Z,27.87
2022-12-11T19:41:27.284Z,20.77
2022-12-11T19:43:56.450Z,23.40
2022-12-11T19:46:25.273Z,23.87
2022-12-11T19:48:54.228Z,22.13
2022-12-11T19:51:31.364Z,20.27
2022-12-11T19:53:59.989Z,24.40
2022-12-11T19:56:27.217Z,20.63
2022-12-11T19:58:56.933Z,23.77
2022-12-11T20:01:29.633Z,21.50
2022-12-11T20:04:02.020Z,17.83
2022-12-11T20:06:33.568Z,19.93
2022-12-11T20:09:01.322Z,19.77
2022-12-11T20:11:28.716Z,19.17
2022-12-11T20:13:56.972Z,17.93
2022-12-11T20:16:46.186Z,19.60
2022-12-11T20:19:11.647Z,33.30
2022-12-11T20:21:38.581Z,16.07
2022-12-11T20:24:06.043Z,18.90
2022-12-11T20:26:36.036Z,18.97
2022-12-11T20:29:08.498Z,22.23
2022-12-11T20:31:36.931Z,22.53
2022-12-11T20:34:05.321Z,18.90
2022-12-11T20:36:33.089Z,22.13
2022-12-11T20:39:00.092Z,19.53
2022-12-11T20:41:27.744Z,24.13
2022-12-11T20:43:54.756Z,24.77
2022-12-11T20:46:25.108Z,19.90
2022-12-11T20:48:53.298Z,23.10
2022-12-11T20:51:25.680Z,21.03
2022-12-11T20:53:59.655Z,19.73
2022-12-11T20:56:29.731Z,25.13
2022-12-11T20:58:57.225Z,19.33
2022-12-11T21:01:27.624Z,19.07
2022-12-11T21:03:54.601Z,17.53
2022-12-11T21:06:25.921Z,18.33
2022-12-11T21:08:54.134Z,20.83
2022-12-11T21:11:21.630Z,18.00
2022-12-11T21:13:48.462Z,25.20
2022-12-11T21:16:15.358Z,19.37
2022-12-11T21:18:44.204Z,19.57
2022-12-11T21:21:11.012Z,20.43
2022-12-11T21:23:39.182Z,16.67
2022-12-11T21:26:06.335Z,20.17
2022-12-11T21:28:35.702Z,17.23
2022-12-11T21:31:08.981Z,19.00
2022-12-11T21:33:36.425Z,17.80
2022-12-11T21:36:05.887Z,18.93
2022-12-11T21:38:33.255Z,18.97
2022-12-11T21:41:18.023Z,16.83
2022-12-11T21:44:41.030Z,16.57
2022-12-11T21:46:34.187Z,15.97
2022-12-11T21:49:01.250Z,17.20
2022-12-11T21:51:35.978Z,16.53
2022-12-11T21:54:07.498Z,17.07
2022-12-11T21:56:34.400Z,19.37
2022-12-11T21:59:04.269Z,17.90
2022-12-11T22:01:35.189Z,17.73
2022-12-11T22:04:02.440Z,18.43
2022-12-11T22:06:29.238Z,17.00
2022-12-11T22:08:57.060Z,16.33
2022-12-11T22:11:27.894Z,18.37
2022-12-11T22:13:54.809Z,18.27
2022-12-11T22:16:23.057Z,17.00
2022-12-11T22:18:49.997Z,16.90
2022-12-11T22:21:17.241Z,15.83
2022-12-11T22:23:45.401Z,16.03
2022-12-11T22:26:17.522Z,14.23
2022-12-11T22:28:45.456Z,16.40
2022-12-11T22:31:14.751Z,16.07
2022-12-11T22:33:41.795Z,17.20
2022-12-11T22:36:10.334Z,19.73
2022-12-11T22:38:37.571Z,19.57
2022-12-11T22:41:23.138Z,16.80
2022-12-11T22:43:50.127Z,17.17
2022-12-11T22:46:19.657Z,16.80
2022-12-11T22:48:46.784Z,15.70
2022-12-11T22:51:13.651Z,16.80
2022-12-11T22:53:40.784Z,17.00
2022-12-11T22:56:10.156Z,17.80
2022-12-11T22:58:38.066Z,18.17
2022-12-11T23:01:13.175Z,17.70
2022-12-11T23:03:40.575Z,19.00
2022-12-11T23:06:09.430Z,15.23
2022-12-11T23:08:36.424Z,15.43
2022-12-11T23:11:10.297Z,13.67
2022-12-11T23:13:37.063Z,15.30
2022-12-11T23:16:03.972Z,13.67
2022-12-11T23:18:30.730Z,14.50
2022-12-11T23:20:57.571Z,15.17
2022-12-11T23:23:24.631Z,16.23
2022-12-11T23:25:51.952Z,14.10
2022-12-11T23:28:18.872Z,15.57
2022-12-11T23:30:46.006Z,13.73
2022-12-11T23:33:12.857Z,12.80
2022-12-11T23:35:39.715Z,13.07
2022-12-11T23:38:06.519Z,13.10
2022-12-11T23:40:33.385Z,12.40
2022-12-11T23:43:00.202Z,13.17
2022-12-11T23:45:27.212Z,14.33
2022-12-11T23:47:54.065Z,13.70
2022-12-11T23:50:20.833Z,14.40
2022-12-11T23:52:47.606Z,13.57
2022-12-11T23:55:14.962Z,15.17
2022-12-11T23:57:41.853Z,13.53
